createdAt,value
2023-02-01T00:01:29.261Z,67.00
2023-02-01T00:03:56.479Z,67.00
2023-02-01T00:06:23.909Z,66.90
2023-02-01T00:08:55.267Z,66.80
2023-02-01T00:11:23.748Z,66.90
2023-02-01T00:13:51.557Z,66.90
2023-02-01T00:16:21.885Z,66.90
2023-02-01T00:18:51.991Z,66.90
2023-02-01T00:21:24.429Z,66.90
2023-02-01T00:23:51.695Z,66.80
2023-02-01T00:26:23.756Z,66.70
2023-02-01T00:28:51.050Z,66.80
2023-02-01T00:31:18.378Z,66.70
2023-02-01T00:33:48.984Z,66.80
2023-02-01T00:36:19.300Z,66.80
2023-02-01T00:38:46.840Z,66.80
2023-02-01T00:41:19.852Z,66.80
2023-02-01T00:43:48.264Z,66.80
2023-02-01T00:46:17.881Z,66.90
2023-02-01T00:48:45.571Z,66.80
2023-02-01T00:51:18.039Z,66.90
2023-02-01T00:53:45.673Z,67.00
2023-02-01T00:56:16.800Z,66.90
2023-02-01T00:58:45.891Z,67.20
2023-02-01T01:01:19.722Z,67.10
2023-02-01T01:03:58.976Z,67.30
2023-02-01T01:06:29.547Z,67.90
2023-02-01T01:08:59.290Z,67.30
2023-02-01T01:11:32.203Z,67.40
2023-02-01T01:14:01.087Z,67.40
2023-02-01T01:16:29.945Z,67.50
2023-02-01T01:19:00.623Z,67.50
2023-02-01T01:21:28.552Z,67.60
2023-02-01T01:24:00.488Z,67.50
2023-02-01T01:26:29.276Z,67.60
2023-02-01T01:28:58.501Z,67.60
2023-02-01T01:31:28.502Z,67.80
2023-02-01T01:33:57.870Z,67.80
2023-02-01T01:36:28.496Z,67.80
2023-02-01T01:38:57.981Z,68.10
2023-02-01T01:41:29.642Z,68.10
2023-02-01T01:44:00.036Z,68.20
2023-02-01T01:46:38.637Z,68.20
2023-02-01T01:49:27.039Z,68.30
2023-02-01T01:52:02.005Z,68.40
2023-02-01T01:54:38.447Z,68.30
2023-02-01T01:57:13.346Z,68.30
2023-02-01T01:59:45.601Z,68.40
2023-02-01T02:02:15.369Z,68.30
2023-02-01T02:04:45.639Z,68.40
2023-02-01T02:07:26.732Z,68.40
2023-02-01T02:10:00.496Z,68.50
2023-02-01T02:12:29.608Z,68.40
2023-02-01T02:14:58.590Z,68.50
2023-02-01T02:17:43.884Z,68.50
2023-02-01T02:20:14.209Z,68.70
2023-02-01T02:23:12.692Z,68.50
2023-02-01T02:25:58.429Z,68.60
2023-02-01T02:29:04.612Z,68.40
2023-02-01T02:32:15.192Z,68.40
2023-02-01T02:35:01.113Z,68.50
2023-02-01T02:37:31.116Z,68.40
2023-02-01T02:40:13.652Z,68.20
2023-02-01T02:43:30.114Z,68.30
2023-02-01T02:46:35.205Z,67.90
2023-02-01T02:49:12.405Z,68.30
2023-02-01T02:52:03.116Z,68.30
2023-02-01T02:54:55.090Z,68.30
2023-02-01T02:57:47.437Z,68.30
2023-02-01T03:00:38.094Z,68.30
2023-02-01T03:03:25.085Z,68.20
2023-02-01T03:05:55.563Z,68.20
2023-02-01T03:08:23.956Z,68.20
2023-02-01T03:11:06.488Z,68.10
2023-02-01T03:13:59.851Z,68.10
2023-02-01T03:16:37.940Z,68.10
2023-02-01T03:19:08.403Z,68.10
2023-02-01T03:21:43.909Z,68.10
2023-02-01T03:24:21.040Z,68.20
2023-02-01T03:26:57.766Z,68.00
2023-02-01T03:29:34.678Z,68.10
2023-02-01T03:32:02.295Z,68.00
2023-02-01T03:34:30.112Z,67.80
2023-02-01T03:37:03.197Z,67.60
2023-02-01T03:39:39.812Z,67.50
2023-02-01T03:42:15.993Z,67.40
2023-02-01T03:44:52.410Z,67.40
2023-02-01T03:47:28.224Z,67.30
2023-02-01T03:50:05.267Z,67.00
2023-02-01T03:52:46.648Z,67.00
2023-02-01T03:55:17.467Z,66.90
2023-02-01T03:58:04.019Z,66.90
2023-02-01T04:00:31.503Z,66.80
2023-02-01T04:02:58.860Z,66.80
2023-02-01T04:05:31.252Z,66.70
2023-02-01T04:08:01.137Z,66.50
2023-02-01T04:10:30.715Z,66.60
2023-02-01T04:12:58.354Z,66.50
2023-02-01T04:15:28.173Z,66.30
2023-02-01T04:17:55.504Z,66.40
2023-02-01T04:20:23.028Z,66.40
2023-02-01T04:22:50.484Z,66.40
2023-02-01T04:25:18.304Z,66.40
2023-02-01T04:27:45.653Z,66.50
2023-02-01T04:30:13.953Z,66.50
2023-02-01T04:32:41.500Z,66.40
2023-02-01T04:35:12.696Z,66.40
2023-02-01T04:37:40.031Z,66.40
2023-02-01T04:40:10.325Z,66.30
2023-02-01T04:42:37.622Z,66.40
2023-02-01T04:45:05.482Z,66.40
2023-02-01T04:47:32.763Z,66.40
2023-02-01T04:50:02.920Z,66.40
2023-02-01T04:52:32.956Z,66.50
2023-02-01T04:55:01.070Z,66.60
2023-02-01T04:57:28.365Z,66.60
2023-02-01T04:59:55.817Z,66.70
2023-02-01T05:02:23.112Z,66.70
2023-02-01T05:04:52.603Z,66.80
2023-02-01T05:07:20.862Z,66.80
2023-02-01T05:09:50.570Z,66.80
2023-02-01T05:12:38.832Z,66.80
2023-02-01T05:15:09.076Z,66.90
2023-02-01T05:17:36.367Z,66.90
2023-02-01T05:20:03.932Z,66.90
2023-02-01T05:22:31.181Z,66.90
2023-02-01T05:24:58.490Z,66.90
2023-02-01T05:27:25.825Z,67.00
2023-02-01T05:29:53.065Z,67.10
2023-02-01T05:32:23.359Z,67.10
2023-02-01T05:34:50.777Z,67.20
2023-02-01T05:37:20.553Z,67.20
2023-02-01T05:39:47.949Z,67.30
2023-02-01T05:42:15.504Z,67.20
2023-02-01T05:44:42.840Z,67.20
2023-02-01T05:47:10.566Z,67.30
2023-02-01T05:49:37.852Z,67.20
2023-02-01T05:52:05.359Z,67.10
2023-02-01T05:54:32.620Z,67.00
2023-02-01T05:56:59.944Z,67.00
2023-02-01T05:59:27.281Z,67.00
2023-02-01T06:01:57.138Z,66.80
2023-02-01T06:04:26.621Z,66.80
2023-02-01T06:06:56.307Z,66.70
2023-02-01T06:09:29.279Z,66.60
2023-02-01T06:11:56.831Z,66.50
2023-02-01T06:14:24.765Z,66.50
2023-02-01T06:16:52.019Z,66.50
2023-02-01T06:19:19.268Z,66.50
2023-02-01T06:21:46.681Z,66.40
2023-02-01T06:24:16.262Z,66.30
2023-02-01T06:26:43.608Z,66.20
2023-02-01T06:29:11.406Z,66.10
2023-02-01T06:31:38.829Z,66.20
2023-02-01T06:34:08.214Z,66.10
2023-02-01T06:36:35.633Z,66.00
2023-02-01T06:39:02.999Z,66.00
2023-02-01T06:41:30.277Z,66.00
2023-02-01T06:43:57.550Z,65.90
2023-02-01T06:46:27.173Z,65.90
2023-02-01T06:48:55.356Z,65.90
2023-02-01T06:51:25.428Z,65.90
2023-02-01T06:53:52.797Z,65.90
2023-02-01T06:56:20.692Z,65.90
2023-02-01T06:58:50.655Z,65.80
2023-02-01T07:01:20.956Z,65.60
2023-02-01T07:03:52.390Z,65.60
2023-02-01T07:06:19.883Z,65.70
2023-02-01T07:08:49.958Z,65.70
2023-02-01T07:11:18.691Z,65.60
2023-02-01T07:13:46.875Z,65.50
2023-02-01T07:16:16.794Z,65.50
2023-02-01T07:18:44.783Z,65.60
2023-02-01T07:21:14.988Z,65.50
2023-02-01T07:23:44.663Z,65.60
2023-02-01T07:26:14.087Z,65.70
2023-02-01T07:28:42.159Z,65.90
2023-02-01T07:31:16.408Z,65.80
2023-02-01T07:33:43.701Z,65.60
2023-02-01T07:36:17.317Z,65.70
2023-02-01T07:38:44.955Z,66.00
2023-02-01T07:41:14.796Z,65.80
2023-02-01T07:43:42.091Z,66.00
2023-02-01T07:46:10.913Z,65.70
2023-02-01T07:48:38.333Z,65.40
2023-02-01T07:51:10.277Z,65.30
2023-02-01T07:53:38.299Z,65.20
2023-02-01T07:56:15.741Z,65.20
2023-02-01T07:58:45.392Z,64.90
2023-02-01T08:01:25.383Z,64.80
2023-02-01T08:04:00.017Z,65.00
2023-02-01T08:06:32.036Z,64.80
2023-02-01T08:08:59.583Z,64.60
2023-02-01T08:11:27.946Z,64.60
2023-02-01T08:13:55.483Z,64.60
2023-02-01T08:16:24.343Z,64.30
2023-02-01T08:18:52.667Z,64.50
2023-02-01T08:21:23.505Z,64.30
2023-02-01T08:23:51.245Z,64.10
2023-02-01T08:26:26.930Z,63.70
2023-02-01T08:29:00.758Z,63.40
2023-02-01T08:31:32.531Z,63.30
2023-02-01T08:34:01.442Z,63.50
2023-02-01T08:36:30.624Z,63.90
2023-02-01T08:38:58.267Z,63.10
2023-02-01T08:41:28.252Z,63.20
2023-02-01T08:43:56.325Z,63.10
2023-02-01T08:46:24.003Z,63.10
2023-02-01T08:48:52.237Z,63.00
2023-02-01T08:51:23.873Z,62.90
2023-02-01T08:53:51.639Z,62.90
2023-02-01T08:56:23.467Z,62.90
2023-02-01T08:58:50.739Z,62.60
2023-02-01T09:01:18.872Z,62.50
2023-02-01T09:03:53.812Z,62.60
2023-02-01T09:06:21.087Z,62.10
2023-02-01T09:08:48.421Z,62.60
2023-02-01T09:11:18.115Z,62.60
2023-02-01T09:13:45.890Z,62.60
2023-02-01T09:16:13.531Z,62.70
2023-02-01T09:18:50.474Z,62.80
2023-02-01T09:21:28.507Z,62.80
2023-02-01T09:23:55.777Z,63.20
2023-02-01T09:26:32.028Z,63.50
2023-02-01T09:29:04.483Z,63.80
2023-02-01T09:31:31.959Z,63.60
2023-02-01T09:34:04.252Z,63.70
2023-02-01T09:36:31.561Z,63.90
2023-02-01T09:39:02.009Z,64.20
2023-02-01T09:42:23.773Z,64.40
2023-02-01T09:45:18.000Z,64.90
2023-02-01T09:47:53.787Z,65.10
2023-02-01T09:50:28.298Z,65.30
2023-02-01T09:53:03.763Z,65.40
2023-02-01T09:55:33.832Z,65.50
2023-02-01T09:58:04.810Z,66.20
2023-02-01T10:00:39.765Z,65.50
2023-02-01T10:03:13.150Z,65.50
2023-02-01T10:05:45.875Z,65.60
2023-02-01T10:08:13.062Z,65.60
2023-02-01T10:10:50.781Z,65.60
2023-02-01T10:13:46.283Z,65.50
2023-02-01T10:16:41.721Z,65.80
2023-02-01T10:19:40.962Z,65.70
2023-02-01T10:22:11.838Z,65.50
2023-02-01T10:25:02.195Z,65.50
2023-02-01T10:27:37.525Z,65.60
2023-02-01T10:30:17.433Z,65.70
2023-02-01T10:32:44.696Z,66.00
2023-02-01T10:35:19.354Z,66.00
2023-02-01T10:37:47.788Z,66.00
2023-02-01T10:40:25.590Z,65.80
2023-02-01T10:42:56.170Z,65.90
2023-02-01T10:45:26.118Z,65.80
2023-02-01T10:47:56.324Z,65.90
2023-02-01T10:50:58.710Z,65.90
2023-02-01T10:53:36.694Z,65.60
2023-02-01T10:56:09.261Z,65.10
2023-02-01T10:58:43.850Z,64.90
2023-02-01T11:01:19.324Z,64.80
2023-02-01T11:04:04.580Z,65.00
2023-02-01T11:06:40.242Z,65.00
2023-02-01T11:09:14.010Z,64.30
2023-02-01T11:11:47.415Z,64.60
2023-02-01T11:14:29.206Z,64.60
2023-02-01T11:17:01.156Z,64.30
2023-02-01T11:19:31.976Z,64.50
2023-02-01T11:22:01.526Z,64.30
2023-02-01T11:24:36.518Z,64.20
2023-02-01T11:27:07.246Z,64.50
2023-02-01T11:29:44.056Z,64.90
2023-02-01T11:32:17.669Z,64.90
2023-02-01T11:34:58.834Z,64.50
2023-02-01T11:37:39.131Z,64.40
2023-02-01T11:40:18.444Z,64.20
2023-02-01T11:42:55.403Z,64.10
2023-02-01T11:45:38.355Z,63.70
2023-02-01T11:48:26.176Z,63.90
2023-02-01T11:51:11.867Z,63.10
2023-02-01T11:54:19.554Z,62.90
2023-02-01T11:57:16.985Z,62.90
2023-02-01T12:00:02.385Z,62.30
2023-02-01T12:03:00.252Z,62.60
2023-02-01T12:05:36.566Z,62.90
2023-02-01T12:08:13.927Z,62.60
2023-02-01T12:10:53.386Z,62.10
2023-02-01T12:13:54.690Z,62.10
2023-02-01T12:16:49.891Z,62.80
2023-02-01T12:19:36.137Z,61.80
2023-02-01T12:22:33.987Z,61.40
2023-02-01T12:25:26.259Z,60.60
2023-02-01T12:28:02.499Z,60.50
2023-02-01T12:30:32.636Z,60.60
2023-02-01T12:33:41.838Z,59.90
2023-02-01T12:36:12.053Z,60.00
2023-02-01T12:39:07.069Z,59.70
2023-02-01T12:41:58.825Z,59.50
2023-02-01T12:45:06.640Z,60.00
2023-02-01T12:47:42.476Z,59.80
2023-02-01T12:50:28.253Z,59.70
2023-02-01T12:53:21.586Z,59.50
2023-02-01T12:56:02.453Z,59.70
2023-02-01T12:58:46.779Z,59.70
2023-02-01T13:01:21.373Z,59.50
2023-02-01T13:03:58.807Z,60.10
2023-02-01T13:06:36.434Z,59.50
2023-02-01T13:09:31.445Z,59.20
2023-02-01T13:12:32.756Z,59.50
2023-02-01T13:15:05.159Z,59.50
2023-02-01T13:17:34.654Z,59.20
2023-02-01T13:20:14.939Z,59.20
2023-02-01T13:22:49.450Z,59.20
2023-02-01T13:25:39.125Z,59.20
2023-02-01T13:28:33.633Z,59.60
2023-02-01T13:31:29.596Z,59.40
2023-02-01T13:34:11.773Z,59.70
2023-02-01T13:36:54.373Z,59.30
2023-02-01T13:39:52.645Z,59.70
2023-02-01T13:42:30.026Z,60.20
2023-02-01T13:44:59.156Z,60.50
2023-02-01T13:47:44.951Z,60.60
2023-02-01T13:50:36.171Z,60.50
2023-02-01T13:53:12.102Z,61.10
2023-02-01T13:55:42.976Z,61.20
2023-02-01T13:58:42.906Z,61.50
2023-02-01T14:01:22.278Z,61.70
2023-02-01T14:03:53.527Z,62.00
2023-02-01T14:06:34.978Z,62.30
2023-02-01T14:09:14.495Z,62.70
2023-02-01T14:11:52.084Z,62.90
2023-02-01T14:14:19.309Z,63.20
2023-02-01T14:16:57.575Z,63.30
2023-02-01T14:19:32.611Z,63.80
2023-02-01T14:22:15.925Z,64.20
2023-02-01T14:24:54.004Z,64.20
2023-02-01T14:27:28.101Z,64.50
2023-02-01T14:30:00.633Z,64.90
2023-02-01T14:32:42.074Z,64.90
2023-02-01T14:35:28.587Z,65.10
2023-02-01T14:38:03.607Z,65.30
2023-02-01T14:40:32.003Z,65.00
2023-02-01T14:43:01.917Z,65.10
2023-02-01T14:45:29.487Z,65.30
2023-02-01T14:48:16.780Z,65.20
2023-02-01T14:50:51.639Z,65.20
2023-02-01T14:53:25.708Z,64.70
2023-02-01T14:56:15.020Z,64.60
2023-02-01T14:58:59.398Z,64.80
2023-02-01T15:01:32.059Z,64.40
2023-02-01T15:04:09.705Z,64.60
2023-02-01T15:06:42.758Z,64.30
2023-02-01T15:09:15.651Z,63.70
2023-02-01T15:12:01.785Z,63.70
2023-02-01T15:14:34.936Z,63.90
2023-02-01T15:17:02.480Z,63.50
2023-02-01T15:19:33.925Z,63.50
2023-02-01T15:22:01.492Z,63.90
2023-02-01T15:24:33.732Z,63.70
2023-02-01T15:27:06.127Z,63.30
2023-02-01T15:29:34.471Z,62.80
2023-02-01T15:32:01.999Z,62.90
2023-02-01T15:34:50.605Z,62.70
2023-02-01T15:37:23.307Z,62.60
2023-02-01T15:40:13.076Z,62.10
2023-02-01T15:42:55.626Z,61.70
2023-02-01T15:45:33.016Z,62.00
2023-02-01T15:48:01.101Z,61.60
2023-02-01T15:50:34.813Z,61.80
2023-02-01T15:53:02.285Z,61.60
2023-02-01T15:55:42.098Z,61.70
2023-02-01T15:58:24.408Z,61.80
2023-02-01T16:01:00.832Z,61.40
2023-02-01T16:03:44.084Z,61.30
2023-02-01T16:06:27.910Z,61.60
2023-02-01T16:09:11.394Z,61.20
2023-02-01T16:12:00.295Z,61.10
2023-02-01T16:14:28.025Z,61.20
2023-02-01T16:16:58.692Z,61.30
2023-02-01T16:19:29.138Z,61.20
2023-02-01T16:21:59.907Z,61.40
2023-02-01T16:24:27.263Z,61.00
2023-02-01T16:26:57.501Z,60.90
2023-02-01T16:29:27.242Z,60.80
2023-02-01T16:31:54.568Z,60.60
2023-02-01T16:34:21.973Z,60.60
2023-02-01T16:36:52.974Z,60.90
2023-02-01T16:39:21.850Z,60.80
2023-02-01T16:41:49.299Z,60.60
2023-02-01T16:44:19.373Z,60.80
2023-02-01T16:46:49.749Z,60.60
2023-02-01T16:49:24.459Z,60.60
2023-02-01T16:51:56.351Z,60.60
2023-02-01T16:54:24.049Z,60.60
2023-02-01T16:56:51.521Z,60.70
2023-02-01T16:59:18.814Z,60.80
2023-02-01T17:01:48.483Z,61.00
2023-02-01T17:04:17.597Z,60.90
2023-02-01T17:06:48.205Z,60.90
2023-02-01T17:09:15.717Z,60.80
2023-02-01T17:11:42.973Z,60.80
2023-02-01T17:14:23.543Z,60.10
2023-02-01T17:16:54.639Z,60.50
2023-02-01T17:19:24.567Z,60.30
2023-02-01T17:21:56.589Z,60.20
2023-02-01T17:24:35.781Z,60.50
2023-02-01T17:27:04.621Z,60.40
2023-02-01T17:29:32.079Z,60.50
2023-02-01T17:32:03.901Z,60.30
2023-02-01T17:34:32.812Z,60.30
2023-02-01T17:37:00.099Z,60.20
2023-02-01T17:39:48.249Z,60.00
2023-02-01T17:42:17.967Z,60.00
2023-02-01T17:44:45.227Z,60.10
2023-02-01T17:47:12.736Z,60.30
2023-02-01T17:49:42.107Z,60.00
2023-02-01T17:52:16.529Z,60.30
2023-02-01T17:54:44.140Z,60.40
2023-02-01T17:57:17.017Z,60.40
2023-02-01T17:59:46.507Z,60.40
2023-02-01T18:02:23.056Z,60.50
2023-02-01T18:04:51.147Z,60.80
2023-02-01T18:07:21.092Z,60.60
2023-02-01T18:09:48.484Z,60.70
2023-02-01T18:12:25.534Z,60.80
2023-02-01T18:14:52.873Z,60.80
2023-02-01T18:17:20.169Z,60.70
2023-02-01T18:19:47.409Z,60.50
2023-02-01T18:22:18.292Z,60.60
2023-02-01T18:24:47.859Z,60.70
2023-02-01T18:27:17.566Z,60.80
2023-02-01T18:29:44.798Z,61.00
2023-02-01T18:32:12.067Z,60.90
2023-02-01T18:34:41.754Z,60.90
2023-02-01T18:37:14.111Z,60.50
2023-02-01T18:39:41.460Z,60.60
2023-02-01T18:42:11.152Z,60.60
2023-02-01T18:44:41.098Z,60.60
2023-02-01T18:47:08.456Z,60.60
2023-02-01T18:49:37.685Z,60.40
2023-02-01T18:52:06.571Z,60.40
2023-02-01T18:54:33.790Z,60.10
2023-02-01T18:57:03.515Z,60.00
2023-02-01T18:59:30.739Z,60.20
2023-02-01T19:01:57.970Z,60.30
2023-02-01T19:04:25.668Z,59.70
2023-02-01T19:06:53.453Z,60.00
2023-02-01T19:09:22.972Z,60.00
2023-02-01T19:11:52.354Z,59.90
2023-02-01T19:14:19.752Z,59.60
2023-02-01T19:16:49.833Z,59.90
2023-02-01T19:19:17.047Z,59.90
2023-02-01T19:21:44.297Z,60.00
2023-02-01T19:24:11.592Z,60.00
2023-02-01T19:26:41.465Z,59.70
2023-02-01T19:29:08.755Z,59.40
2023-02-01T19:31:36.199Z,59.20
2023-02-01T19:34:04.072Z,59.00
2023-02-01T19:36:33.560Z,59.00
2023-02-01T19:39:00.840Z,59.30
2023-02-01T19:41:28.106Z,59.30
2023-02-01T19:43:55.583Z,59.00
2023-02-01T19:46:23.001Z,59.00
2023-02-01T19:48:50.377Z,59.00
2023-02-01T19:51:17.973Z,59.40
2023-02-01T19:53:45.228Z,59.40
2023-02-01T19:56:12.546Z,59.20
2023-02-01T19:58:42.432Z,59.20
2023-02-01T20:01:08.841Z,59.40
2023-02-01T20:03:36.206Z,59.40
2023-02-01T20:06:03.663Z,59.70
2023-02-01T20:08:33.556Z,59.70
2023-02-01T20:11:00.825Z,59.70
2023-02-01T20:13:28.218Z,60.00
2023-02-01T20:15:59.536Z,59.90
2023-02-01T20:18:27.870Z,60.70
2023-02-01T20:20:56.841Z,59.90
2023-02-01T20:23:25.015Z,60.10
2023-02-01T20:25:53.266Z,60.10
2023-02-01T20:28:20.508Z,60.10
2023-02-01T20:30:47.787Z,60.10
2023-02-01T20:33:15.864Z,60.20
2023-02-01T20:35:46.177Z,60.40
2023-02-01T20:38:15.730Z,60.40
2023-02-01T20:40:45.403Z,60.30
2023-02-01T20:43:12.893Z,60.50
2023-02-01T20:45:43.652Z,60.50
2023-02-01T20:48:12.161Z,60.30
2023-02-01T20:50:41.791Z,60.30
2023-02-01T20:53:17.059Z,60.50
2023-02-01T20:55:54.837Z,60.60
2023-02-01T20:58:22.558Z,60.30
2023-02-01T21:00:50.696Z,60.30
2023-02-01T21:03:19.093Z,60.00
2023-02-01T21:05:51.296Z,60.10
2023-02-01T21:08:21.535Z,60.20
2023-02-01T21:11:09.281Z,59.70
2023-02-01T21:13:43.039Z,59.70
2023-02-01T21:16:16.776Z,59.70
2023-02-01T21:18:44.290Z,59.40
2023-02-01T21:21:16.325Z,59.40
2023-02-01T21:23:46.716Z,59.30
2023-02-01T21:26:25.172Z,59.30
2023-02-01T21:28:56.916Z,59.00
2023-02-01T21:31:26.750Z,58.40
2023-02-01T21:33:54.049Z,58.90
2023-02-01T21:36:21.399Z,59.00
2023-02-01T21:38:52.640Z,58.70
2023-02-01T21:41:40.983Z,58.50
2023-02-01T21:44:14.504Z,58.50
2023-02-01T21:46:45.087Z,58.30
2023-02-01T21:49:13.058Z,58.00
2023-02-01T21:51:42.662Z,57.80
2023-02-01T21:54:11.311Z,57.90
2023-02-01T21:56:39.631Z,58.10
2023-02-01T21:59:07.830Z,58.10
2023-02-01T22:01:35.132Z,58.10
2023-02-01T22:04:07.144Z,58.40
2023-02-01T22:06:35.949Z,58.30
2023-02-01T22:09:03.990Z,57.80
2023-02-01T22:11:31.597Z,57.50
2023-02-01T22:13:59.495Z,57.40
2023-02-01T22:16:31.402Z,57.70
2023-02-01T22:18:58.859Z,57.70
2023-02-01T22:21:28.609Z,57.70
2023-02-01T22:23:58.924Z,57.60
2023-02-01T22:26:32.251Z,57.20
2023-02-01T22:28:59.534Z,58.00
2023-02-01T22:31:32.110Z,57.50
2023-02-01T22:34:01.974Z,57.50
2023-02-01T22:36:29.225Z,57.40
2023-02-01T22:38:58.868Z,57.10
2023-02-01T22:41:26.194Z,57.10
2023-02-01T22:43:55.893Z,57.50
2023-02-01T22:46:27.194Z,57.50
2023-02-01T22:48:54.783Z,57.40
2023-02-01T22:51:28.701Z,57.90
2023-02-01T22:53:59.298Z,58.00
2023-02-01T22:56:31.739Z,58.30
2023-02-01T22:59:05.207Z,58.40
2023-02-01T23:01:33.490Z,58.60
2023-02-01T23:04:03.032Z,58.80
2023-02-01T23:06:33.675Z,58.80
2023-02-01T23:09:25.138Z,58.90
2023-02-01T23:11:53.890Z,58.80
2023-02-01T23:14:23.691Z,58.80
2023-02-01T23:16:51.035Z,59.10
2023-02-01T23:19:20.479Z,59.10
2023-02-01T23:21:50.298Z,59.10
2023-02-01T23:24:17.665Z,58.90
2023-02-01T23:26:47.135Z,59.10
2023-02-01T23:29:18.142Z,59.20
2023-02-01T23:31:47.685Z,59.50
2023-02-01T23:34:20.735Z,59.50
2023-02-01T23:36:47.961Z,59.60
2023-02-01T23:39:15.221Z,59.90
2023-02-01T23:41:42.491Z,59.70
2023-02-01T23:44:10.108Z,59.90
2023-02-01T23:46:41.455Z,59.90
2023-02-01T23:49:09.461Z,60.00
2023-02-01T23:51:37.662Z,60.00
2023-02-01T23:54:05.644Z,59.90
2023-02-01T23:56:35.523Z,59.80
2023-02-01T23:59:05.479Z,59.90
